createdAt,value
2023-01-08T00:03:08.273Z,99702.97
2023-01-08T00:13:09.597Z,99686.50
2023-01-08T00:23:10.884Z,99688.19
2023-01-08T00:33:12.175Z,99649.00
2023-01-08T00:43:13.439Z,99634.22
2023-01-08T00:53:14.681Z,99617.66
2023-01-08T01:03:15.931Z,99617.38
2023-01-08T01:13:17.195Z,99618.53
2023-01-08T01:23:18.494Z,99626.59
2023-01-08T01:33:19.735Z,99628.66
2023-01-08T01:43:21.014Z,99627.97
2023-01-08T01:53:22.263Z,99623.56
2023-01-08T02:03:23.502Z,99622.97
2023-01-08T02:13:24.741Z,99593.69
2023-01-08T02:23:26.067Z,99587.66
2023-01-08T02:33:27.411Z,99568.72
2023-01-08T02:43:28.686Z,99577.38
2023-01-08T02:53:30.032Z,99559.22
2023-01-08T03:03:31.318Z,99532.31
2023-01-08T03:13:33.110Z,99533.16
2023-01-08T03:23:34.390Z,99519.34
2023-01-08T03:33:35.644Z,99517.66
2023-01-08T03:43:36.912Z,99503.81
2023-01-08T03:53:38.259Z,99520.31
2023-01-08T04:03:39.543Z,99512.56
2023-01-08T04:13:40.829Z,99512.53
2023-01-08T04:23:42.117Z,99515.97
2023-01-08T04:33:43.362Z,99516.91
2023-01-08T04:43:44.614Z,99529.97
2023-01-08T04:53:46.398Z,99534.38
2023-01-08T05:03:47.744Z,99541.41
2023-01-08T05:13:49.129Z,99537.06
2023-01-08T05:23:50.385Z,99517.91
2023-01-08T05:33:51.686Z,99526.50
2023-01-08T05:43:53.115Z,99510.00
2023-01-08T05:53:54.372Z,99498.75
2023-01-08T06:03:55.852Z,99491.75
2023-01-08T06:13:57.147Z,99469.09
2023-01-08T06:23:58.391Z,99484.28
2023-01-08T06:33:59.644Z,99483.44
2023-01-08T06:44:00.885Z,99483.56
2023-01-08T06:54:02.106Z,99494.84
2023-01-08T07:04:03.380Z,99492.81
2023-01-08T07:14:04.735Z,99478.00
2023-01-08T07:24:07.503Z,99496.34
2023-01-08T07:34:08.782Z,99512.03
2023-01-08T07:44:10.085Z,99504.25
2023-01-08T07:54:11.325Z,99513.59
2023-01-08T08:04:12.912Z,99505.91
2023-01-08T08:14:14.338Z,99500.66
2023-01-08T08:24:16.164Z,99489.28
2023-01-08T08:34:17.433Z,99492.69
2023-01-08T08:44:18.808Z,99493.47
2023-01-08T08:54:20.059Z,99489.00
2023-01-08T09:04:21.360Z,99480.09
2023-01-08T09:14:22.687Z,99476.34
2023-01-08T09:24:23.952Z,99471.97
2023-01-08T09:34:25.196Z,99484.94
2023-01-08T09:44:26.519Z,99481.91
2023-01-08T09:54:27.838Z,99483.81
2023-01-08T10:04:29.113Z,99473.88
2023-01-08T10:14:30.420Z,99459.78
2023-01-08T10:24:31.706Z,99459.41
2023-01-08T10:34:33.183Z,99439.88
2023-01-08T10:44:35.938Z,99414.28
2023-01-08T10:54:37.228Z,99402.66
2023-01-08T11:04:38.505Z,99389.84
2023-01-08T11:14:39.957Z,99360.09
2023-01-08T11:24:42.261Z,99348.63
2023-01-08T11:34:43.541Z,99341.53
2023-01-08T11:44:45.986Z,99325.53
2023-01-08T11:54:47.336Z,99298.44
2023-01-08T12:04:48.594Z,99282.13
2023-01-08T12:14:49.855Z,99287.97
2023-01-08T12:24:51.221Z,99286.72
2023-01-08T12:34:52.558Z,99267.69
2023-01-08T12:44:54.490Z,99253.81
2023-01-08T12:54:56.574Z,99260.09
2023-01-08T13:04:57.956Z,99247.38
2023-01-08T13:14:59.237Z,99229.09
2023-01-08T13:25:02.289Z,99214.59
2023-01-08T13:35:03.661Z,99215.59
2023-01-08T13:45:05.039Z,99210.69
2023-01-08T13:55:06.368Z,99200.31
2023-01-08T14:05:07.765Z,99184.97
2023-01-08T14:15:09.979Z,99156.56
2023-01-08T14:25:12.357Z,99150.09
2023-01-08T14:35:13.665Z,99166.22
2023-01-08T14:45:15.217Z,99152.44
2023-01-08T14:55:18.570Z,99141.88
2023-01-08T15:05:20.087Z,99138.66
2023-01-08T15:15:21.403Z,99120.13
2023-01-08T15:25:22.653Z,99100.00
2023-01-08T15:35:25.907Z,99097.47
2023-01-08T15:45:28.422Z,99075.78
2023-01-08T15:55:32.354Z,99068.84
2023-01-08T16:05:33.657Z,99060.06
2023-01-08T16:15:35.463Z,99059.28
2023-01-08T16:25:36.855Z,99046.88
2023-01-08T16:35:38.114Z,99027.59
2023-01-08T16:45:39.433Z,99005.31
2023-01-08T16:55:40.715Z,98988.00
2023-01-08T17:05:42.270Z,98972.19
2023-01-08T17:15:43.600Z,98954.81
2023-01-08T17:25:44.879Z,98967.06
2023-01-08T17:35:46.218Z,98942.94
2023-01-08T17:45:47.479Z,98937.47
2023-01-08T17:55:49.174Z,98929.50
2023-01-08T18:05:50.471Z,98927.34
2023-01-08T18:15:51.759Z,98907.84
2023-01-08T18:25:53.072Z,98894.28
2023-01-08T18:35:54.400Z,98876.19
2023-01-08T18:45:55.683Z,98878.84
2023-01-08T18:55:56.942Z,98879.63
2023-01-08T19:05:58.327Z,98847.41
2023-01-08T19:16:01.032Z,98836.94
2023-01-08T19:26:02.312Z,98834.38
2023-01-08T19:36:05.723Z,98818.59
2023-01-08T19:46:07.154Z,98797.56
2023-01-08T19:56:08.516Z,98781.88
2023-01-08T20:06:09.918Z,98775.94
2023-01-08T20:16:11.242Z,98770.47
2023-01-08T20:26:14.233Z,98752.25
2023-01-08T20:36:15.471Z,98739.28
2023-01-08T20:46:16.778Z,98720.28
2023-01-08T20:56:18.105Z,98713.25
2023-01-08T21:06:19.512Z,98705.25
2023-01-08T21:16:22.925Z,98683.41
2023-01-08T21:26:24.433Z,98677.97
2023-01-08T21:36:25.699Z,98660.25
2023-01-08T21:46:26.969Z,98640.81
2023-01-08T21:56:28.257Z,98635.66
2023-01-08T22:06:29.553Z,98608.78
2023-01-08T22:16:30.860Z,98583.69
2023-01-08T22:26:35.062Z,98579.31
2023-01-08T22:36:36.369Z,98589.53
2023-01-08T22:46:37.646Z,98598.03
2023-01-08T22:56:38.893Z,98592.69
2023-01-08T23:06:40.312Z,98603.06
2023-01-08T23:16:41.645Z,98597.00
2023-01-08T23:26:43.174Z,98596.94
2023-01-08T23:36:44.496Z,98574.28
2023-01-08T23:46:45.748Z,98566.81
2023-01-08T23:56:47.020Z,98547.22
